sensor_id;sensor_type;location;lat;lon;timestamp;temperature;humidity
23507;DHT22;11930;53.076;18.250;2023-08-06T00:01:40;16.00;99.90
23507;DHT22;11930;53.076;18.250;2023-08-06T00:04:06;15.90;99.90
23507;DHT22;11930;53.076;18.250;2023-08-06T00:06:32;16.00;99.90
23507;DHT22;11930;53.076;18.250;2023-08-06T00:08:58;16.00;99.90
23507;DHT22;11930;53.076;18.250;2023-08-06T00:11:24;16.00;99.90
23507;DHT22;11930;53.076;18.250;2023-08-06T00:13:50;16.00;99.90
23507;DHT22;11930;53.076;18.250;2023-08-06T00:16:16;16.00;99.90
23507;DHT22;11930;53.076;18.250;2023-08-06T00:18:42;15.90;99.90
23507;DHT22;11930;53.076;18.250;2023-08-06T00:21:08;16.00;99.90
23507;DHT22;11930;53.076;18.250;2023-08-06T00:23:34;15.90;99.90
23507;DHT22;11930;53.076;18.250;2023-08-06T00:26:00;15.90;99.90
23507;DHT22;11930;53.076;18.250;2023-08-06T00:28:26;15.90;99.90
23507;DHT22;11930;53.076;18.250;2023-08-06T00:30:55;15.90;99.90
23507;DHT22;11930;53.076;18.250;2023-08-06T00:33:25;15.90;99.90
23507;DHT22;11930;53.076;18.250;2023-08-06T00:35:51;15.90;99.90
23507;DHT22;11930;53.076;18.250;2023-08-06T00:38:17;15.80;99.90
23507;DHT22;11930;53.076;18.250;2023-08-06T00:40:43;15.80;99.90
23507;DHT22;11930;53.076;18.250;2023-08-06T00:43:10;15.80;99.90
23507;DHT22;11930;53.076;18.250;2023-08-06T00:45:37;15.80;99.90
23507;DHT22;11930;53.076;18.250;2023-08-06T00:48:05;15.70;99.90
23507;DHT22;11930;53.076;18.250;2023-08-06T00:50:31;15.70;99.90
23507;DHT22;11930;53.076;18.250;2023-08-06T00:52:58;15.70;99.90
23507;DHT22;11930;53.076;18.250;2023-08-06T00:55:24;15.60;99.90
23507;DHT22;11930;53.076;18.250;2023-08-06T00:57:53;15.60;99.90
23507;DHT22;11930;53.076;18.250;2023-08-06T01:00:22;15.60;99.90
23507;DHT22;11930;53.076;18.250;2023-08-06T01:02:49;15.60;99.90
23507;DHT22;11930;53.076;18.250;2023-08-06T01:05:20;15.60;99.90
23507;DHT22;11930;53.076;18.250;2023-08-06T01:08:12;15.50;99.90
23507;DHT22;11930;53.076;18.250;2023-08-06T01:13:41;15.50;99.90
23507;DHT22;11930;53.076;18.250;2023-08-06T01:16:09;15.50;99.90
23507;DHT22;11930;53.076;18.250;2023-08-06T01:18:35;15.50;99.90
23507;DHT22;11930;53.076;18.250;2023-08-06T01:21:05;15.50;99.90
23507;DHT22;11930;53.076;18.250;2023-08-06T01:23:31;15.50;99.90
23507;DHT22;11930;53.076;18.250;2023-08-06T01:28:56;15.40;99.90
23507;DHT22;11930;53.076;18.250;2023-08-06T01:31:30;15.40;99.90
23507;DHT22;11930;53.076;18.250;2023-08-06T01:33:58;15.40;99.90
23507;DHT22;11930;53.076;18.250;2023-08-06T01:36:25;15.40;99.90
23507;DHT22;11930;53.076;18.250;2023-08-06T01:38:55;15.40;99.90
23507;DHT22;11930;53.076;18.250;2023-08-06T01:41:21;15.40;99.90
23507;DHT22;11930;53.076;18.250;2023-08-06T01:43:47;15.40;99.90
23507;DHT22;11930;53.076;18.250;2023-08-06T01:46:13;15.40;99.90
23507;DHT22;11930;53.076;18.250;2023-08-06T01:48:39;15.40;99.90
23507;DHT22;11930;53.076;18.250;2023-08-06T01:51:05;15.40;99.90
23507;DHT22;11930;53.076;18.250;2023-08-06T01:53:32;15.40;99.90
23507;DHT22;11930;53.076;18.250;2023-08-06T01:55:58;15.40;99.90
23507;DHT22;11930;53.076;18.250;2023-08-06T01:58:24;15.40;99.90
23507;DHT22;11930;53.076;18.250;2023-08-06T02:00:50;15.40;99.90
23507;DHT22;11930;53.076;18.250;2023-08-06T02:03:16;15.40;99.90
23507;DHT22;11930;53.076;18.250;2023-08-06T02:05:42;15.40;99.90
23507;DHT22;11930;53.076;18.250;2023-08-06T02:08:08;15.50;99.90
23507;DHT22;11930;53.076;18.250;2023-08-06T02:10:35;15.50;99.90
23507;DHT22;11930;53.076;18.250;2023-08-06T02:13:00;15.50;99.90
23507;DHT22;11930;53.076;18.250;2023-08-06T02:15:27;15.50;99.90
23507;DHT22;11930;53.076;18.250;2023-08-06T02:17:52;15.50;99.90
23507;DHT22;11930;53.076;18.250;2023-08-06T02:20:19;15.50;99.90
23507;DHT22;11930;53.076;18.250;2023-08-06T02:22:44;15.60;99.90
23507;DHT22;11930;53.076;18.250;2023-08-06T02:25:11;15.60;99.90
23507;DHT22;11930;53.076;18.250;2023-08-06T02:27:37;15.60;99.90
23507;DHT22;11930;53.076;18.250;2023-08-06T02:30:04;15.70;99.90
23507;DHT22;11930;53.076;18.250;2023-08-06T02:32:31;15.70;99.90
23507;DHT22;11930;53.076;18.250;2023-08-06T02:35:00;15.70;99.90
23507;DHT22;11930;53.076;18.250;2023-08-06T02:37:25;15.70;99.90
23507;DHT22;11930;53.076;18.250;2023-08-06T02:39:52;15.70;99.90
23507;DHT22;11930;53.076;18.250;2023-08-06T02:42:17;15.80;99.90
23507;DHT22;11930;53.076;18.250;2023-08-06T02:44:43;15.80;99.90
23507;DHT22;11930;53.076;18.250;2023-08-06T02:47:09;15.80;99.90
23507;DHT22;11930;53.076;18.250;2023-08-06T02:49:36;15.80;99.90
23507;DHT22;11930;53.076;18.250;2023-08-06T02:52:01;15.90;99.90
23507;DHT22;11930;53.076;18.250;2023-08-06T02:54:28;15.90;99.90
23507;DHT22;11930;53.076;18.250;2023-08-06T02:56:55;15.90;99.90
23507;DHT22;11930;53.076;18.250;2023-08-06T02:59:26;15.90;99.90
23507;DHT22;11930;53.076;18.250;2023-08-06T03:02:12;15.90;99.90
23507;DHT22;11930;53.076;18.250;2023-08-06T03:04:47;16.00;99.90
23507;DHT22;11930;53.076;18.250;2023-08-06T03:07:13;16.00;99.90
23507;DHT22;11930;53.076;18.250;2023-08-06T03:09:51;16.00;99.90
23507;DHT22;11930;53.076;18.250;2023-08-06T03:12:18;16.00;99.90
23507;DHT22;11930;53.076;18.250;2023-08-06T03:14:44;16.00;99.90
23507;DHT22;11930;53.076;18.250;2023-08-06T03:17:10;16.10;99.90
23507;DHT22;11930;53.076;18.250;2023-08-06T03:19:37;16.10;99.90
23507;DHT22;11930;53.076;18.250;2023-08-06T03:22:04;16.10;99.90
23507;DHT22;11930;53.076;18.250;2023-08-06T03:24:32;16.10;99.90
23507;DHT22;11930;53.076;18.250;2023-08-06T03:26:59;16.20;99.90
23507;DHT22;11930;53.076;18.250;2023-08-06T03:29:25;16.20;99.90
23507;DHT22;11930;53.076;18.250;2023-08-06T03:31:52;16.20;99.90
23507;DHT22;11930;53.076;18.250;2023-08-06T03:34:18;16.20;99.90
23507;DHT22;11930;53.076;18.250;2023-08-06T03:36:46;16.30;99.90
23507;DHT22;11930;53.076;18.250;2023-08-06T03:39:12;16.30;99.90
23507;DHT22;11930;53.076;18.250;2023-08-06T03:41:40;16.30;99.90
23507;DHT22;11930;53.076;18.250;2023-08-06T03:44:07;16.30;99.90
23507;DHT22;11930;53.076;18.250;2023-08-06T03:46:33;16.30;99.90
23507;DHT22;11930;53.076;18.250;2023-08-06T03:49:01;16.30;99.90
23507;DHT22;11930;53.076;18.250;2023-08-06T03:51:27;16.30;99.90
23507;DHT22;11930;53.076;18.250;2023-08-06T03:53:54;16.30;99.90
23507;DHT22;11930;53.076;18.250;2023-08-06T03:56:20;16.30;99.90
23507;DHT22;11930;53.076;18.250;2023-08-06T03:58:46;16.30;99.90
23507;DHT22;11930;53.076;18.250;2023-08-06T04:01:12;16.30;99.90
23507;DHT22;11930;53.076;18.250;2023-08-06T04:03:43;16.30;99.90
23507;DHT22;11930;53.076;18.250;2023-08-06T04:06:09;16.30;99.90
23507;DHT22;11930;53.076;18.250;2023-08-06T04:08:36;16.30;99.90
23507;DHT22;11930;53.076;18.250;2023-08-06T04:11:02;16.30;99.90
23507;DHT22;11930;53.076;18.250;2023-08-06T04:13:29;16.30;99.90
23507;DHT22;11930;53.076;18.250;2023-08-06T04:16:04;16.30;99.90
23507;DHT22;11930;53.076;18.250;2023-08-06T04:18:31;16.30;99.90
23507;DHT22;11930;53.076;18.250;2023-08-06T04:20:57;16.30;99.90
23507;DHT22;11930;53.076;18.250;2023-08-06T04:23:25;16.30;99.90
23507;DHT22;11930;53.076;18.250;2023-08-06T04:25:58;16.30;99.90
23507;DHT22;11930;53.076;18.250;2023-08-06T04:28:26;16.30;99.90
23507;DHT22;11930;53.076;18.250;2023-08-06T04:30:53;16.30;99.90
23507;DHT22;11930;53.076;18.250;2023-08-06T04:33:20;16.40;99.90
23507;DHT22;11930;53.076;18.250;2023-08-06T04:35:47;16.40;99.90
23507;DHT22;11930;53.076;18.250;2023-08-06T04:38:16;16.40;99.90
23507;DHT22;11930;53.076;18.250;2023-08-06T04:40:42;16.50;99.90
23507;DHT22;11930;53.076;18.250;2023-08-06T04:43:08;16.50;99.90
23507;DHT22;11930;53.076;18.250;2023-08-06T04:45:35;16.50;99.90
23507;DHT22;11930;53.076;18.250;2023-08-06T04:48:01;16.60;99.90
23507;DHT22;11930;53.076;18.250;2023-08-06T04:50:27;16.50;99.90
23507;DHT22;11930;53.076;18.250;2023-08-06T04:52:53;16.60;99.90
23507;DHT22;11930;53.076;18.250;2023-08-06T04:55:20;16.60;99.90
23507;DHT22;11930;53.076;18.250;2023-08-06T04:57:46;16.60;99.90
23507;DHT22;11930;53.076;18.250;2023-08-06T05:00:12;16.60;99.90
23507;DHT22;11930;53.076;18.250;2023-08-06T05:02:39;16.70;99.90
23507;DHT22;11930;53.076;18.250;2023-08-06T05:05:05;16.70;99.90
23507;DHT22;11930;53.076;18.250;2023-08-06T05:07:31;16.80;99.90
23507;DHT22;11930;53.076;18.250;2023-08-06T05:09:57;16.70;99.90
23507;DHT22;11930;53.076;18.250;2023-08-06T05:12:23;16.80;99.90
23507;DHT22;11930;53.076;18.250;2023-08-06T05:14:49;16.80;99.90
23507;DHT22;11930;53.076;18.250;2023-08-06T05:17:15;16.90;99.90
23507;DHT22;11930;53.076;18.250;2023-08-06T05:19:41;16.90;99.90
23507;DHT22;11930;53.076;18.250;2023-08-06T05:22:07;16.90;99.90
23507;DHT22;11930;53.076;18.250;2023-08-06T05:24:33;16.90;99.90
23507;DHT22;11930;53.076;18.250;2023-08-06T05:26:59;16.90;99.90
23507;DHT22;11930;53.076;18.250;2023-08-06T05:29:25;17.00;99.90
23507;DHT22;11930;53.076;18.250;2023-08-06T05:31:53;17.00;99.90
23507;DHT22;11930;53.076;18.250;2023-08-06T05:34:19;17.00;99.90
23507;DHT22;11930;53.076;18.250;2023-08-06T05:36:45;17.00;99.90
23507;DHT22;11930;53.076;18.250;2023-08-06T05:39:11;17.00;99.90
23507;DHT22;11930;53.076;18.250;2023-08-06T05:41:37;17.10;99.90
23507;DHT22;11930;53.076;18.250;2023-08-06T05:44:03;17.00;99.90
23507;DHT22;11930;53.076;18.250;2023-08-06T05:46:29;17.10;99.90
23507;DHT22;11930;53.076;18.250;2023-08-06T05:48:55;17.10;99.90
23507;DHT22;11930;53.076;18.250;2023-08-06T05:51:22;17.10;99.90
23507;DHT22;11930;53.076;18.250;2023-08-06T05:53:48;17.10;99.90
23507;DHT22;11930;53.076;18.250;2023-08-06T05:56:16;17.10;99.90
23507;DHT22;11930;53.076;18.250;2023-08-06T05:58:42;17.20;99.90
23507;DHT22;11930;53.076;18.250;2023-08-06T06:01:08;17.20;99.90
23507;DHT22;11930;53.076;18.250;2023-08-06T06:03:34;17.20;99.90
23507;DHT22;11930;53.076;18.250;2023-08-06T06:06:01;17.30;99.90
23507;DHT22;11930;53.076;18.250;2023-08-06T06:08:27;17.30;99.90
23507;DHT22;11930;53.076;18.250;2023-08-06T06:10:54;17.30;99.90
23507;DHT22;11930;53.076;18.250;2023-08-06T06:13:20;17.30;99.90
23507;DHT22;11930;53.076;18.250;2023-08-06T06:15:47;17.40;99.90
23507;DHT22;11930;53.076;18.250;2023-08-06T06:18:13;17.40;99.90
23507;DHT22;11930;53.076;18.250;2023-08-06T06:20:39;17.40;99.90
23507;DHT22;11930;53.076;18.250;2023-08-06T06:23:05;17.40;99.90
23507;DHT22;11930;53.076;18.250;2023-08-06T06:25:31;17.40;99.90
23507;DHT22;11930;53.076;18.250;2023-08-06T06:27:57;17.40;99.90
23507;DHT22;11930;53.076;18.250;2023-08-06T06:30:25;17.50;99.90
23507;DHT22;11930;53.076;18.250;2023-08-06T06:32:50;17.50;99.90
23507;DHT22;11930;53.076;18.250;2023-08-06T06:35:17;17.60;99.90
23507;DHT22;11930;53.076;18.250;2023-08-06T06:37:43;17.60;99.90
23507;DHT22;11930;53.076;18.250;2023-08-06T06:40:09;17.70;99.90
23507;DHT22;11930;53.076;18.250;2023-08-06T06:42:35;17.80;99.90
23507;DHT22;11930;53.076;18.250;2023-08-06T06:45:05;17.80;99.90
23507;DHT22;11930;53.076;18.250;2023-08-06T06:47:31;17.90;99.90
23507;DHT22;11930;53.076;18.250;2023-08-06T06:49:58;18.00;99.90
23507;DHT22;11930;53.076;18.250;2023-08-06T06:52:23;18.00;99.90
23507;DHT22;11930;53.076;18.250;2023-08-06T06:54:50;18.10;99.90
23507;DHT22;11930;53.076;18.250;2023-08-06T06:57:15;18.10;99.90
23507;DHT22;11930;53.076;18.250;2023-08-06T06:59:42;18.20;99.90
23507;DHT22;11930;53.076;18.250;2023-08-06T07:02:07;18.20;99.90
23507;DHT22;11930;53.076;18.250;2023-08-06T07:04:33;18.30;99.90
23507;DHT22;11930;53.076;18.250;2023-08-06T07:06:59;18.20;99.90
23507;DHT22;11930;53.076;18.250;2023-08-06T07:09:26;18.30;99.90
23507;DHT22;11930;53.076;18.250;2023-08-06T07:11:52;18.30;99.90
23507;DHT22;11930;53.076;18.250;2023-08-06T07:14:18;18.40;99.90
23507;DHT22;11930;53.076;18.250;2023-08-06T07:16:44;18.50;99.90
23507;DHT22;11930;53.076;18.250;2023-08-06T07:19:10;18.50;99.90
23507;DHT22;11930;53.076;18.250;2023-08-06T07:21:36;18.60;99.90
23507;DHT22;11930;53.076;18.250;2023-08-06T07:24:03;18.50;99.90
23507;DHT22;11930;53.076;18.250;2023-08-06T07:26:29;18.60;99.90
23507;DHT22;11930;53.076;18.250;2023-08-06T07:28:55;18.50;99.90
23507;DHT22;11930;53.076;18.250;2023-08-06T07:31:21;18.60;99.90
23507;DHT22;11930;53.076;18.250;2023-08-06T07:33:47;18.50;99.90
23507;DHT22;11930;53.076;18.250;2023-08-06T07:36:14;18.60;99.90
23507;DHT22;11930;53.076;18.250;2023-08-06T07:38:41;18.50;99.90
23507;DHT22;11930;53.076;18.250;2023-08-06T07:41:07;19.30;99.90
23507;DHT22;11930;53.076;18.250;2023-08-06T07:43:34;18.60;99.90
23507;DHT22;11930;53.076;18.250;2023-08-06T07:46:01;18.60;99.90
23507;DHT22;11930;53.076;18.250;2023-08-06T07:48:28;18.60;99.90
23507;DHT22;11930;53.076;18.250;2023-08-06T07:50:55;18.50;99.90
23507;DHT22;11930;53.076;18.250;2023-08-06T07:53:22;18.50;99.90
23507;DHT22;11930;53.076;18.250;2023-08-06T07:55:55;18.50;99.90
23507;DHT22;11930;53.076;18.250;2023-08-06T07:58:22;18.50;99.90
23507;DHT22;11930;53.076;18.250;2023-08-06T08:00:48;18.50;99.90
23507;DHT22;11930;53.076;18.250;2023-08-06T08:03:16;18.40;99.90
23507;DHT22;11930;53.076;18.250;2023-08-06T08:05:43;18.50;99.90
23507;DHT22;11930;53.076;18.250;2023-08-06T08:08:10;18.40;99.90
23507;DHT22;11930;53.076;18.250;2023-08-06T08:10:36;18.40;99.90
23507;DHT22;11930;53.076;18.250;2023-08-06T08:13:04;18.40;99.90
23507;DHT22;11930;53.076;18.250;2023-08-06T08:15:31;18.50;99.90
23507;DHT22;11930;53.076;18.250;2023-08-06T08:17:58;18.40;99.90
23507;DHT22;11930;53.076;18.250;2023-08-06T08:20:24;18.50;99.90
23507;DHT22;11930;53.076;18.250;2023-08-06T08:22:59;18.50;99.90
23507;DHT22;11930;53.076;18.250;2023-08-06T08:25:26;18.50;99.90
23507;DHT22;11930;53.076;18.250;2023-08-06T08:27:54;18.50;99.90
23507;DHT22;11930;53.076;18.250;2023-08-06T08:30:20;18.50;99.90
23507;DHT22;11930;53.076;18.250;2023-08-06T08:32:47;18.50;99.90
23507;DHT22;11930;53.076;18.250;2023-08-06T08:35:14;18.60;99.90
23507;DHT22;11930;53.076;18.250;2023-08-06T08:37:42;18.50;99.90
23507;DHT22;11930;53.076;18.250;2023-08-06T08:40:09;18.60;99.90
23507;DHT22;11930;53.076;18.250;2023-08-06T08:42:36;18.50;99.90
23507;DHT22;11930;53.076;18.250;2023-08-06T08:45:04;18.60;99.90
23507;DHT22;11930;53.076;18.250;2023-08-06T08:47:33;18.60;99.90
23507;DHT22;11930;53.076;18.250;2023-08-06T08:49:59;18.60;99.90
23507;DHT22;11930;53.076;18.250;2023-08-06T08:52:26;18.60;99.90
23507;DHT22;11930;53.076;18.250;2023-08-06T08:54:56;18.70;99.90
23507;DHT22;11930;53.076;18.250;2023-08-06T08:57:23;18.80;99.90
23507;DHT22;11930;53.076;18.250;2023-08-06T08:59:50;18.70;99.90
23507;DHT22;11930;53.076;18.250;2023-08-06T09:02:16;18.80;99.90
23507;DHT22;11930;53.076;18.250;2023-08-06T09:04:44;18.80;99.90
23507;DHT22;11930;53.076;18.250;2023-08-06T09:07:18;18.80;99.90
23507;DHT22;11930;53.076;18.250;2023-08-06T09:09:48;18.80;99.90
23507;DHT22;11930;53.076;18.250;2023-08-06T09:12:16;18.80;99.90
23507;DHT22;11930;53.076;18.250;2023-08-06T09:14:43;18.70;99.90
23507;DHT22;11930;53.076;18.250;2023-08-06T09:17:10;18.80;99.90
23507;DHT22;11930;53.076;18.250;2023-08-06T09:19:37;18.70;99.90
23507;DHT22;11930;53.076;18.250;2023-08-06T09:22:03;18.60;99.90
23507;DHT22;11930;53.076;18.250;2023-08-06T09:24:38;18.60;99.90
23507;DHT22;11930;53.076;18.250;2023-08-06T09:27:06;18.60;99.90
23507;DHT22;11930;53.076;18.250;2023-08-06T09:29:43;18.60;99.90
23507;DHT22;11930;53.076;18.250;2023-08-06T09:32:14;18.60;99.90
23507;DHT22;11930;53.076;18.250;2023-08-06T09:34:42;18.60;99.90
23507;DHT22;11930;53.076;18.250;2023-08-06T09:37:09;18.60;99.90
23507;DHT22;11930;53.076;18.250;2023-08-06T09:39:38;18.60;99.90
23507;DHT22;11930;53.076;18.250;2023-08-06T09:42:09;18.60;99.90
23507;DHT22;11930;53.076;18.250;2023-08-06T09:44:35;18.60;99.90
23507;DHT22;11930;53.076;18.250;2023-08-06T09:47:03;18.50;99.90
23507;DHT22;11930;53.076;18.250;2023-08-06T09:51:59;18.50;99.90
23507;DHT22;11930;53.076;18.250;2023-08-06T09:54:27;18.50;99.90
23507;DHT22;11930;53.076;18.250;2023-08-06T09:56:55;18.50;99.90
23507;DHT22;11930;53.076;18.250;2023-08-06T09:59:21;18.60;99.90
23507;DHT22;11930;53.076;18.250;2023-08-06T10:01:48;18.60;99.90
23507;DHT22;11930;53.076;18.250;2023-08-06T10:04:15;18.60;99.90
23507;DHT22;11930;53.076;18.250;2023-08-06T10:06:47;18.60;99.90
23507;DHT22;11930;53.076;18.250;2023-08-06T10:09:14;18.60;99.90
23507;DHT22;11930;53.076;18.250;2023-08-06T10:11:42;18.60;99.90
23507;DHT22;11930;53.076;18.250;2023-08-06T10:14:13;18.60;99.90
23507;DHT22;11930;53.076;18.250;2023-08-06T10:16:42;18.60;99.90
23507;DHT22;11930;53.076;18.250;2023-08-06T10:19:12;18.60;99.90
23507;DHT22;11930;53.076;18.250;2023-08-06T10:21:39;18.60;99.90
23507;DHT22;11930;53.076;18.250;2023-08-06T10:24:08;18.70;99.90
23507;DHT22;11930;53.076;18.250;2023-08-06T10:26:40;18.80;99.90
23507;DHT22;11930;53.076;18.250;2023-08-06T10:29:43;18.80;99.90
23507;DHT22;11930;53.076;18.250;2023-08-06T10:32:10;18.90;99.90
23507;DHT22;11930;53.076;18.250;2023-08-06T10:34:57;18.90;99.90
23507;DHT22;11930;53.076;18.250;2023-08-06T10:37:34;18.90;99.90
23507;DHT22;11930;53.076;18.250;2023-08-06T10:40:01;18.90;99.90
23507;DHT22;11930;53.076;18.250;2023-08-06T10:42:29;18.90;99.90
23507;DHT22;11930;53.076;18.250;2023-08-06T10:45:16;19.00;99.90
23507;DHT22;11930;53.076;18.250;2023-08-06T10:47:43;19.00;99.90
23507;DHT22;11930;53.076;18.250;2023-08-06T10:50:15;19.10;99.90
23507;DHT22;11930;53.076;18.250;2023-08-06T10:52:44;19.20;99.90
23507;DHT22;11930;53.076;18.250;2023-08-06T10:55:10;19.20;99.90
23507;DHT22;11930;53.076;18.250;2023-08-06T10:57:36;19.20;99.90
23507;DHT22;11930;53.076;18.250;2023-08-06T11:00:07;19.30;99.90
23507;DHT22;11930;53.076;18.250;2023-08-06T11:02:35;19.30;99.90
23507;DHT22;11930;53.076;18.250;2023-08-06T11:05:08;19.20;99.90
23507;DHT22;11930;53.076;18.250;2023-08-06T11:07:36;19.20;99.90
23507;DHT22;11930;53.076;18.250;2023-08-06T11:12:31;19.20;99.90
23507;DHT22;11930;53.076;18.250;2023-08-06T11:14:57;19.20;99.90
23507;DHT22;11930;53.076;18.250;2023-08-06T11:17:23;19.20;99.90
23507;DHT22;11930;53.076;18.250;2023-08-06T11:19:49;19.20;99.90
23507;DHT22;11930;53.076;18.250;2023-08-06T11:22:16;19.20;99.90
23507;DHT22;11930;53.076;18.250;2023-08-06T11:24:43;19.20;99.90
23507;DHT22;11930;53.076;18.250;2023-08-06T11:27:16;19.30;99.90
23507;DHT22;11930;53.076;18.250;2023-08-06T11:29:43;19.30;99.90
23507;DHT22;11930;53.076;18.250;2023-08-06T11:32:10;19.30;99.90
23507;DHT22;11930;53.076;18.250;2023-08-06T11:34:37;19.50;99.90
23507;DHT22;11930;53.076;18.250;2023-08-06T11:37:04;19.40;99.90
23507;DHT22;11930;53.076;18.250;2023-08-06T11:39:35;19.50;99.90
23507;DHT22;11930;53.076;18.250;2023-08-06T11:42:05;19.60;99.90
23507;DHT22;11930;53.076;18.250;2023-08-06T11:44:35;19.60;99.90
23507;DHT22;11930;53.076;18.250;2023-08-06T11:47:03;19.70;99.90
23507;DHT22;11930;53.076;18.250;2023-08-06T11:49:40;19.70;99.90
23507;DHT22;11930;53.076;18.250;2023-08-06T11:52:18;19.80;99.90
23507;DHT22;11930;53.076;18.250;2023-08-06T11:57:29;20.00;99.90
23507;DHT22;11930;53.076;18.250;2023-08-06T12:00:09;20.00;99.90
23507;DHT22;11930;53.076;18.250;2023-08-06T12:02:39;20.10;99.90
23507;DHT22;11930;53.076;18.250;2023-08-06T12:07:42;20.30;99.90
23507;DHT22;11930;53.076;18.250;2023-08-06T12:10:10;20.30;99.90
23507;DHT22;11930;53.076;18.250;2023-08-06T12:12:36;20.30;99.90
23507;DHT22;11930;53.076;18.250;2023-08-06T12:15:04;20.30;99.90
23507;DHT22;11930;53.076;18.250;2023-08-06T12:17:32;20.20;99.90
23507;DHT22;11930;53.076;18.250;2023-08-06T12:19:58;20.20;99.90
23507;DHT22;11930;53.076;18.250;2023-08-06T12:22:25;20.20;99.90
23507;DHT22;11930;53.076;18.250;2023-08-06T12:24:51;20.10;99.90
23507;DHT22;11930;53.076;18.250;2023-08-06T12:27:17;20.10;99.90
23507;DHT22;11930;53.076;18.250;2023-08-06T12:29:48;20.10;99.90
23507;DHT22;11930;53.076;18.250;2023-08-06T12:32:15;20.10;99.90
23507;DHT22;11930;53.076;18.250;2023-08-06T12:34:41;20.10;99.90
23507;DHT22;11930;53.076;18.250;2023-08-06T12:37:09;20.10;99.90
23507;DHT22;11930;53.076;18.250;2023-08-06T12:39:35;20.10;99.90
23507;DHT22;11930;53.076;18.250;2023-08-06T12:42:04;20.10;99.90
23507;DHT22;11930;53.076;18.250;2023-08-06T12:44:30;20.20;99.90
23507;DHT22;11930;53.076;18.250;2023-08-06T12:46:57;20.20;99.90
23507;DHT22;11930;53.076;18.250;2023-08-06T12:49:23;20.30;99.90
23507;DHT22;11930;53.076;18.250;2023-08-06T12:51:50;20.40;99.90
23507;DHT22;11930;53.076;18.250;2023-08-06T12:54:19;20.50;99.90
23507;DHT22;11930;53.076;18.250;2023-08-06T12:56:47;20.90;99.90
23507;DHT22;11930;53.076;18.250;2023-08-06T12:59:14;20.90;99.90
23507;DHT22;11930;53.076;18.250;2023-08-06T13:01:42;21.10;99.90
23507;DHT22;11930;53.076;18.250;2023-08-06T13:04:08;21.40;99.90
23507;DHT22;11930;53.076;18.250;2023-08-06T13:06:35;21.60;99.90
23507;DHT22;11930;53.076;18.250;2023-08-06T13:09:12;21.70;99.90
23507;DHT22;11930;53.076;18.250;2023-08-06T13:11:39;22.00;99.90
23507;DHT22;11930;53.076;18.250;2023-08-06T13:14:07;22.00;99.90
23507;DHT22;11930;53.076;18.250;2023-08-06T13:16:35;22.20;99.90
23507;DHT22;11930;53.076;18.250;2023-08-06T13:19:01;22.30;99.90
23507;DHT22;11930;53.076;18.250;2023-08-06T13:21:32;22.50;99.90
23507;DHT22;11930;53.076;18.250;2023-08-06T13:23:58;22.60;99.90
23507;DHT22;11930;53.076;18.250;2023-08-06T13:26:24;23.00;99.90
23507;DHT22;11930;53.076;18.250;2023-08-06T13:28:50;23.10;99.90
23507;DHT22;11930;53.076;18.250;2023-08-06T13:31:17;23.20;99.90
23507;DHT22;11930;53.076;18.250;2023-08-06T13:33:43;23.30;99.90
23507;DHT22;11930;53.076;18.250;2023-08-06T13:36:09;23.40;99.90
23507;DHT22;11930;53.076;18.250;2023-08-06T13:38:35;23.30;99.90
23507;DHT22;11930;53.076;18.250;2023-08-06T13:41:01;23.40;99.90
23507;DHT22;11930;53.076;18.250;2023-08-06T13:43:28;23.20;99.90
23507;DHT22;11930;53.076;18.250;2023-08-06T13:45:54;23.10;99.90
23507;DHT22;11930;53.076;18.250;2023-08-06T13:48:20;23.00;99.90
23507;DHT22;11930;53.076;18.250;2023-08-06T13:50:46;22.90;99.90
23507;DHT22;11930;53.076;18.250;2023-08-06T13:53:12;22.80;99.90
23507;DHT22;11930;53.076;18.250;2023-08-06T13:55:38;22.70;99.90
23507;DHT22;11930;53.076;18.250;2023-08-06T13:58:04;22.70;99.90
23507;DHT22;11930;53.076;18.250;2023-08-06T14:00:30;22.70;99.90
23507;DHT22;11930;53.076;18.250;2023-08-06T14:02:56;22.70;99.90
23507;DHT22;11930;53.076;18.250;2023-08-06T14:05:23;22.70;99.90
23507;DHT22;11930;53.076;18.250;2023-08-06T14:07:48;22.70;99.90
23507;DHT22;11930;53.076;18.250;2023-08-06T14:10:15;22.70;99.90
23507;DHT22;11930;53.076;18.250;2023-08-06T14:12:41;22.70;99.90
23507;DHT22;11930;53.076;18.250;2023-08-06T14:15:08;22.70;99.90
23507;DHT22;11930;53.076;18.250;2023-08-06T14:17:34;22.70;99.90
23507;DHT22;11930;53.076;18.250;2023-08-06T14:20:00;22.70;99.90
23507;DHT22;11930;53.076;18.250;2023-08-06T14:22:28;22.70;99.90
23507;DHT22;11930;53.076;18.250;2023-08-06T14:24:58;22.70;99.90
23507;DHT22;11930;53.076;18.250;2023-08-06T14:27:24;22.70;99.90
23507;DHT22;11930;53.076;18.250;2023-08-06T14:29:51;22.70;99.90
23507;DHT22;11930;53.076;18.250;2023-08-06T14:32:17;22.70;99.90
23507;DHT22;11930;53.076;18.250;2023-08-06T14:34:47;22.70;99.90
23507;DHT22;11930;53.076;18.250;2023-08-06T14:37:13;22.70;99.90
23507;DHT22;11930;53.076;18.250;2023-08-06T14:39:39;22.70;99.90
23507;DHT22;11930;53.076;18.250;2023-08-06T14:42:05;22.70;99.90
23507;DHT22;11930;53.076;18.250;2023-08-06T14:44:31;22.60;99.90
23507;DHT22;11930;53.076;18.250;2023-08-06T14:46:57;22.50;99.90
23507;DHT22;11930;53.076;18.250;2023-08-06T14:49:23;22.50;99.90
23507;DHT22;11930;53.076;18.250;2023-08-06T14:51:50;22.50;99.90
23507;DHT22;11930;53.076;18.250;2023-08-06T14:54:16;22.50;99.90
23507;DHT22;11930;53.076;18.250;2023-08-06T14:56:42;22.40;99.90
23507;DHT22;11930;53.076;18.250;2023-08-06T14:59:08;22.40;99.90
23507;DHT22;11930;53.076;18.250;2023-08-06T15:01:34;22.40;99.90
23507;DHT22;11930;53.076;18.250;2023-08-06T15:04:00;22.30;99.90
23507;DHT22;11930;53.076;18.250;2023-08-06T15:06:26;22.30;99.90
23507;DHT22;11930;53.076;18.250;2023-08-06T15:08:52;22.20;99.90
23507;DHT22;11930;53.076;18.250;2023-08-06T15:11:19;22.10;99.90
23507;DHT22;11930;53.076;18.250;2023-08-06T15:13:45;21.90;99.90
23507;DHT22;11930;53.076;18.250;2023-08-06T15:16:11;21.80;99.90
23507;DHT22;11930;53.076;18.250;2023-08-06T15:18:38;21.50;99.90
23507;DHT22;11930;53.076;18.250;2023-08-06T15:21:03;21.40;99.90
23507;DHT22;11930;53.076;18.250;2023-08-06T15:23:30;21.30;99.90
23507;DHT22;11930;53.076;18.250;2023-08-06T15:25:56;21.30;99.90
23507;DHT22;11930;53.076;18.250;2023-08-06T15:28:22;21.20;99.90
23507;DHT22;11930;53.076;18.250;2023-08-06T15:30:51;21.20;99.90
23507;DHT22;11930;53.076;18.250;2023-08-06T15:33:18;21.00;99.90